Time;durP1;ratioP1;P1;durP2;ratioP2;P2;SDS_P1;SDS_P2;PMS_P1;PMS_P2;Temp;Humidity;BMP_temperature;BMP_pressure;BME280_temperature;BME280_humidity;BME280_pressure;Samples;Min_cycle;Max_cycle;Signal;HPM_P1;HPM_P2
2023/02/11 00:01:33;;;;;;;7.07;2.90;;;;;;;;;;5082461;28;20044;-79
2023/02/11 00:03:59;;;;;;;8.80;3.50;;;;;;;;;;5083030;28;20107;-79
2023/02/11 00:06:25;;;;;;;8.63;3.17;;;;;;;;;;5091034;28;20463;-79
2023/02/11 00:08:50;;;;;;;6.27;2.60;;;;;;;;;;5092474;28;20024;-79
2023/02/11 00:11:17;;;;;;;10.70;3.33;;;;;;;;;;5085849;28;20009;-79
2023/02/11 00:13:43;;;;;;;10.10;3.37;;;;;;;;;;5078839;28;20021;-79
2023/02/11 00:16:10;;;;;;;9.13;2.73;;;;;;;;;;5092332;28;20022;-79
2023/02/11 00:18:35;;;;;;;7.40;2.97;;;;;;;;;;5083062;28;20016;-79
2023/02/11 00:21:04;;;;;;;9.93;3.00;;;;;;;;;;5087098;28;20028;-79
2023/02/11 00:23:29;;;;;;;7.63;3.00;;;;;;;;;;5076584;28;20108;-79
2023/02/11 00:25:55;;;;;;;7.83;3.00;;;;;;;;;;5089698;28;20431;-79
2023/02/11 00:28:20;;;;;;;9.57;2.90;;;;;;;;;;5090837;28;20017;-79
2023/02/11 00:30:52;;;;;;;5.70;2.93;;;;;;;;;;5090224;28;20046;-79
2023/02/11 00:33:17;;;;;;;7.18;3.30;;;;;;;;;;5072547;28;20434;-79
2023/02/11 00:35:42;;;;;;;5.20;2.50;;;;;;;;;;5071661;28;20116;-79
2023/02/11 00:38:07;;;;;;;8.90;4.17;;;;;;;;;;5085112;28;20020;-79
2023/02/11 00:40:33;;;;;;;7.73;3.17;;;;;;;;;;5083665;28;20436;-79
2023/02/11 00:42:58;;;;;;;10.23;3.10;;;;;;;;;;5074579;28;20016;-79
2023/02/11 00:45:23;;;;;;;8.57;2.50;;;;;;;;;;5071778;28;20049;-79
2023/02/11 00:47:49;;;;;;;7.00;2.43;;;;;;;;;;5083466;28;20049;-79
2023/02/11 00:50:14;;;;;;;7.37;2.83;;;;;;;;;;5091925;28;20012;-79
2023/02/11 00:52:39;;;;;;;5.50;2.60;;;;;;;;;;5086629;28;20023;-79
2023/02/11 00:55:04;;;;;;;7.73;3.43;;;;;;;;;;5087154;28;20035;-79
2023/02/11 00:57:30;;;;;;;7.63;3.20;;;;;;;;;;5091905;28;20020;-79
2023/02/11 00:59:55;;;;;;;6.47;3.37;;;;;;;;;;5085449;28;20022;-79
2023/02/11 01:02:20;;;;;;;6.87;3.03;;;;;;;;;;5082097;28;20013;-79
2023/02/11 01:04:45;;;;;;;7.63;2.97;;;;;;;;;;5083824;28;20518;-79
2023/02/11 01:07:10;;;;;;;6.07;2.70;;;;;;;;;;5091463;28;20085;-79
2023/02/11 01:09:38;;;;;;;7.53;2.90;;;;;;;;;;5091567;28;20020;-79
2023/02/11 01:12:04;;;;;;;5.63;2.53;;;;;;;;;;5081678;28;20082;-79
2023/02/11 01:14:29;;;;;;;6.00;2.07;;;;;;;;;;5074580;28;20467;-79
2023/02/11 01:16:55;;;;;;;9.43;3.03;;;;;;;;;;5085068;28;20030;-79
2023/02/11 01:19:20;;;;;;;7.27;2.00;;;;;;;;;;5082440;28;20039;-79
2023/02/11 01:21:45;;;;;;;6.13;2.30;;;;;;;;;;5082996;28;20022;-79
2023/02/11 01:24:10;;;;;;;9.10;2.03;;;;;;;;;;5077252;28;20032;-79
2023/02/11 01:26:36;;;;;;;6.90;2.57;;;;;;;;;;5086966;28;20078;-79
2023/02/11 01:29:01;;;;;;;6.00;2.57;;;;;;;;;;5085937;28;20149;-79
2023/02/11 01:31:26;;;;;;;7.47;2.00;;;;;;;;;;5085799;28;20029;-79
2023/02/11 01:33:51;;;;;;;6.13;3.00;;;;;;;;;;5073643;28;20372;-79
2023/02/11 01:36:17;;;;;;;5.87;1.67;;;;;;;;;;5090066;28;20018;-80
2023/02/11 01:38:43;;;;;;;9.57;2.77;;;;;;;;;;5082123;28;20486;-79
2023/02/11 01:41:09;;;;;;;10.87;3.27;;;;;;;;;;5085254;28;20028;-79
2023/02/11 01:43:43;;;;;;;7.83;2.63;;;;;;;;;;5071930;28;20499;-79
2023/02/11 01:46:28;;;;;;;7.17;2.07;;;;;;;;;;5058677;28;20031;-79
2023/02/11 01:48:58;;;;;;;4.60;2.53;;;;;;;;;;5079263;28;20028;-79
2023/02/11 01:51:31;;;;;;;13.97;3.13;;;;;;;;;;5083432;28;20479;-79
2023/02/11 01:59:32;;;;;;;5.33;1.80;;;;;;;;;;5091202;28;20027;-79
2023/02/11 02:01:58;;;;;;;5.23;2.63;;;;;;;;;;5082481;28;20036;-79
2023/02/11 02:04:30;;;;;;;6.53;2.13;;;;;;;;;;5083398;28;20023;-79
2023/02/11 02:06:58;;;;;;;5.28;2.22;;;;;;;;;;5077194;28;20110;-79
2023/02/11 02:09:29;;;;;;;6.30;2.90;;;;;;;;;;5084560;28;20020;-79
2023/02/11 02:11:54;;;;;;;9.37;2.17;;;;;;;;;;5083000;28;20487;-79
2023/02/11 02:14:19;;;;;;;5.40;1.87;;;;;;;;;;5081794;28;20115;-79
2023/02/11 02:16:45;;;;;;;6.03;2.00;;;;;;;;;;5090983;28;20112;-79
2023/02/11 02:19:28;;;;;;;6.40;2.73;;;;;;;;;;5090656;28;20253;-79
2023/02/11 02:22:13;;;;;;;5.83;1.90;;;;;;;;;;5082034;28;20069;-79
2023/02/11 02:24:58;;;;;;;6.63;1.60;;;;;;;;;;5073734;28;20052;-79
2023/02/11 02:27:39;;;;;;;9.57;2.43;;;;;;;;;;5094678;28;20052;-79
2023/02/11 02:30:13;;;;;;;5.17;2.23;;;;;;;;;;5085279;28;20039;-79
2023/02/11 02:32:57;;;;;;;9.07;2.83;;;;;;;;;;5082106;28;20031;-79
2023/02/11 02:35:22;;;;;;;4.67;2.33;;;;;;;;;;5085562;28;20026;-80
2023/02/11 02:37:53;;;;;;;2.73;1.53;;;;;;;;;;5092805;28;20016;-79
2023/02/11 02:40:22;;;;;;;7.43;2.23;;;;;;;;;;5094293;28;20061;-79
2023/02/11 02:42:47;;;;;;;4.70;2.03;;;;;;;;;;5081631;28;20035;-79
2023/02/11 02:45:12;;;;;;;3.13;1.83;;;;;;;;;;5064231;28;20021;-79
2023/02/11 02:47:37;;;;;;;8.33;2.07;;;;;;;;;;5082639;28;20491;-79
2023/02/11 02:50:04;;;;;;;8.40;1.90;;;;;;;;;;5079947;28;20023;-79
2023/02/11 02:52:29;;;;;;;6.63;1.97;;;;;;;;;;5094009;28;20031;-79
2023/02/11 02:55:21;;;;;;;7.53;2.50;;;;;;;;;;5089494;28;20387;-79
2023/02/11 02:57:46;;;;;;;6.27;2.13;;;;;;;;;;5077926;28;20055;-79
2023/02/11 03:00:14;;;;;;;11.20;3.83;;;;;;;;;;5078282;28;20029;-79
2023/02/11 03:02:50;;;;;;;7.07;2.10;;;;;;;;;;5092501;28;20019;-78
2023/02/11 03:05:24;;;;;;;11.53;2.33;;;;;;;;;;5089324;28;20020;-78
2023/02/11 03:07:49;;;;;;;5.87;2.00;;;;;;;;;;5087651;28;20020;-78
2023/02/11 03:10:24;;;;;;;7.90;2.67;;;;;;;;;;5085576;28;20076;-79
2023/02/11 03:12:50;;;;;;;6.33;1.97;;;;;;;;;;5088840;28;20100;-78
2023/02/11 03:15:17;;;;;;;4.43;2.17;;;;;;;;;;5085836;28;20031;-80
2023/02/11 03:17:44;;;;;;;5.00;1.47;;;;;;;;;;5093805;28;20569;-79
2023/02/11 03:20:12;;;;;;;6.07;1.83;;;;;;;;;;5080698;28;20036;-79
2023/02/11 03:22:39;;;;;;;7.60;1.90;;;;;;;;;;5088094;28;20028;-79
2023/02/11 03:25:05;;;;;;;7.57;2.00;;;;;;;;;;5076674;28;20044;-79
2023/02/11 03:27:36;;;;;;;7.50;2.03;;;;;;;;;;5089962;28;20012;-79
2023/02/11 03:30:09;;;;;;;4.25;1.90;;;;;;;;;;5079142;28;20028;-79
2023/02/11 03:32:40;;;;;;;7.10;2.57;;;;;;;;;;5089547;28;20036;-79
2023/02/11 03:35:23;;;;;;;5.47;1.80;;;;;;;;;;5085934;28;20537;-79
2023/02/11 03:37:53;;;;;;;5.33;2.37;;;;;;;;;;5089752;28;20016;-79
2023/02/11 03:40:22;;;;;;;5.20;1.97;;;;;;;;;;5076550;28;20107;-79
2023/02/11 03:42:50;;;;;;;5.37;1.70;;;;;;;;;;5086085;28;20024;-79
2023/02/11 03:45:17;;;;;;;7.63;1.93;;;;;;;;;;5083235;28;20024;-79
2023/02/11 03:47:47;;;;;;;5.40;2.77;;;;;;;;;;5087874;28;20502;-79
2023/02/11 03:50:13;;;;;;;4.50;1.90;;;;;;;;;;5074278;28;20103;-79
2023/02/11 03:52:39;;;;;;;4.27;2.10;;;;;;;;;;5083959;28;20081;-79
2023/02/11 03:55:24;;;;;;;6.33;1.90;;;;;;;;;;5088750;28;20028;-79
2023/02/11 03:57:50;;;;;;;5.77;2.57;;;;;;;;;;5082168;28;20028;-79
2023/02/11 04:00:15;;;;;;;5.60;1.97;;;;;;;;;;5071427;28;20539;-76
2023/02/11 04:02:40;;;;;;;5.60;2.40;;;;;;;;;;5072637;28;20103;-76
2023/02/11 04:05:06;;;;;;;8.63;2.00;;;;;;;;;;5086140;28;20024;-76
2023/02/11 04:07:32;;;;;;;7.17;2.37;;;;;;;;;;5083746;28;20059;-76
2023/02/11 04:09:57;;;;;;;9.47;2.63;;;;;;;;;;5080119;28;20440;-76
2023/02/11 04:12:22;;;;;;;8.93;2.33;;;;;;;;;;5082768;28;20043;-76
2023/02/11 04:14:47;;;;;;;6.73;2.57;;;;;;;;;;5089777;28;20063;-76
2023/02/11 04:17:13;;;;;;;7.40;3.07;;;;;;;;;;5092497;28;20040;-76
2023/02/11 04:19:38;;;;;;;4.10;1.93;;;;;;;;;;5083209;28;20032;-77
2023/02/11 04:22:04;;;;;;;3.70;1.80;;;;;;;;;;5090923;28;20024;-76
2023/02/11 04:24:29;;;;;;;8.20;2.53;;;;;;;;;;5092407;28;20024;-76
2023/02/11 04:26:54;;;;;;;4.60;1.77;;;;;;;;;;5088762;28;20048;-76
2023/02/11 04:29:20;;;;;;;4.70;2.30;;;;;;;;;;5074855;28;20012;-76
2023/02/11 04:31:45;;;;;;;8.47;2.70;;;;;;;;;;5085648;28;20336;-77
2023/02/11 04:34:10;;;;;;;7.90;2.50;;;;;;;;;;5091955;28;20446;-76
2023/02/11 04:36:35;;;;;;;7.30;2.40;;;;;;;;;;5087619;28;20079;-77
2023/02/11 04:39:01;;;;;;;6.77;2.33;;;;;;;;;;5087049;28;20023;-76
2023/02/11 04:41:26;;;;;;;5.87;2.30;;;;;;;;;;5082144;28;20020;-76
2023/02/11 04:43:51;;;;;;;6.50;1.60;;;;;;;;;;5091734;28;20063;-77
2023/02/11 04:46:16;;;;;;;4.77;2.17;;;;;;;;;;5075228;28;20040;-76
2023/02/11 04:48:41;;;;;;;5.00;2.10;;;;;;;;;;5091575;28;20016;-77
2023/02/11 04:51:07;;;;;;;6.33;2.63;;;;;;;;;;5077614;28;20047;-76
2023/02/11 04:53:32;;;;;;;6.43;3.07;;;;;;;;;;5092089;28;20095;-77
2023/02/11 04:55:57;;;;;;;7.23;3.00;;;;;;;;;;5083024;28;20100;-76
2023/02/11 04:58:23;;;;;;;7.70;2.83;;;;;;;;;;5092045;28;20085;-76
2023/02/11 05:00:48;;;;;;;8.00;2.77;;;;;;;;;;5075918;28;20017;-76
2023/02/11 05:03:13;;;;;;;6.50;2.20;;;;;;;;;;5079172;28;20012;-76
2023/02/11 05:05:39;;;;;;;8.87;2.33;;;;;;;;;;5090443;28;20076;-76
2023/02/11 05:08:05;;;;;;;6.20;2.77;;;;;;;;;;5091712;28;20073;-76
2023/02/11 05:10:30;;;;;;;9.70;3.40;;;;;;;;;;5078704;28;20024;-76
2023/02/11 05:12:56;;;;;;;8.77;3.67;;;;;;;;;;5088452;28;20110;-76
2023/02/11 05:15:21;;;;;;;10.73;3.10;;;;;;;;;;5081280;28;20074;-77
2023/02/11 05:17:46;;;;;;;4.73;2.37;;;;;;;;;;5085388;28;20027;-76
2023/02/11 05:20:11;;;;;;;8.13;3.90;;;;;;;;;;5086076;28;20020;-76
2023/02/11 05:22:37;;;;;;;8.57;2.90;;;;;;;;;;5084765;28;20111;-76
2023/02/11 05:25:02;;;;;;;6.87;3.00;;;;;;;;;;5091344;28;20455;-76
2023/02/11 05:27:27;;;;;;;8.77;3.47;;;;;;;;;;5084294;28;20028;-77
2023/02/11 05:29:52;;;;;;;11.10;3.10;;;;;;;;;;5089800;28;20093;-76
2023/02/11 05:32:17;;;;;;;9.13;3.73;;;;;;;;;;5078659;28;20048;-77
2023/02/11 05:34:43;;;;;;;6.13;2.80;;;;;;;;;;5091010;28;20025;-76
2023/02/11 05:37:08;;;;;;;8.20;3.20;;;;;;;;;;5076620;28;20391;-76
2023/02/11 05:39:33;;;;;;;8.97;4.37;;;;;;;;;;5091069;28;20447;-76
2023/02/11 05:41:58;;;;;;;10.87;3.30;;;;;;;;;;5090868;28;20023;-76
2023/02/11 05:44:23;;;;;;;8.60;3.87;;;;;;;;;;5088074;28;20028;-77
2023/02/11 05:46:49;;;;;;;8.63;2.87;;;;;;;;;;5073511;28;20047;-76
2023/02/11 05:49:15;;;;;;;5.80;2.93;;;;;;;;;;5091566;28;20016;-76
2023/02/11 05:51:40;;;;;;;9.67;3.43;;;;;;;;;;5089206;28;20039;-76
2023/02/11 05:54:05;;;;;;;8.17;3.60;;;;;;;;;;5091181;28;20016;-76
2023/02/11 05:56:31;;;;;;;7.17;3.63;;;;;;;;;;5079462;28;20004;-76
2023/02/11 05:58:57;;;;;;;12.13;2.90;;;;;;;;;;5087394;28;20048;-77
2023/02/11 06:01:22;;;;;;;13.67;3.90;;;;;;;;;;5079554;28;20021;-76
2023/02/11 06:03:48;;;;;;;12.07;3.83;;;;;;;;;;5086838;28;20039;-76
2023/02/11 06:06:14;;;;;;;11.37;3.57;;;;;;;;;;5090978;28;20039;-76
2023/02/11 06:08:39;;;;;;;13.90;4.13;;;;;;;;;;5094999;28;20634;-76
2023/02/11 06:11:05;;;;;;;8.73;3.77;;;;;;;;;;5084503;28;20020;-76
2023/02/11 06:13:30;;;;;;;12.97;4.80;;;;;;;;;;5095000;28;20028;-76
2023/02/11 06:15:56;;;;;;;8.33;3.47;;;;;;;;;;5079337;28;20025;-77
2023/02/11 06:18:21;;;;;;;10.07;4.00;;;;;;;;;;5094559;28;20012;-76
2023/02/11 06:20:46;;;;;;;10.53;3.83;;;;;;;;;;5086347;28;20029;-76
2023/02/11 06:23:12;;;;;;;14.23;5.00;;;;;;;;;;5092244;28;20343;-76
2023/02/11 06:25:37;;;;;;;9.03;3.53;;;;;;;;;;5082301;28;20450;-76
2023/02/11 06:28:03;;;;;;;10.23;4.00;;;;;;;;;;5090181;28;20060;-76
2023/02/11 06:30:28;;;;;;;8.97;3.47;;;;;;;;;;5086731;28;20402;-76
2023/02/11 06:32:54;;;;;;;10.03;4.17;;;;;;;;;;5094585;28;20060;-77
2023/02/11 06:35:19;;;;;;;9.30;3.63;;;;;;;;;;5085996;28;20051;-76
2023/02/11 06:37:44;;;;;;;13.27;4.00;;;;;;;;;;5093274;28;20046;-76
2023/02/11 06:40:10;;;;;;;11.30;3.80;;;;;;;;;;5086301;28;20095;-76
2023/02/11 06:42:37;;;;;;;10.43;3.80;;;;;;;;;;5094305;28;20066;-76
2023/02/11 06:45:04;;;;;;;8.57;4.17;;;;;;;;;;5082958;28;20025;-76
2023/02/11 06:47:30;;;;;;;10.77;4.10;;;;;;;;;;5093033;28;20020;-77
2023/02/11 06:49:55;;;;;;;12.10;4.63;;;;;;;;;;5085011;28;20379;-77
2023/02/11 06:52:20;;;;;;;14.40;4.50;;;;;;;;;;5093477;28;20459;-76
2023/02/11 06:54:45;;;;;;;13.30;4.90;;;;;;;;;;5086622;28;20025;-76
2023/02/11 06:57:10;;;;;;;11.77;4.47;;;;;;;;;;5079905;28;20019;-77
2023/02/11 06:59:36;;;;;;;15.53;5.37;;;;;;;;;;5093218;28;20020;-76
2023/02/11 07:02:01;;;;;;;15.63;5.20;;;;;;;;;;5082404;28;20038;-76
2023/02/11 07:04:26;;;;;;;9.33;3.90;;;;;;;;;;5081202;28;20039;-76
2023/02/11 07:06:51;;;;;;;10.37;4.43;;;;;;;;;;5074935;28;20024;-77
2023/02/11 07:09:16;;;;;;;12.23;5.03;;;;;;;;;;5072552;28;20494;-76
2023/02/11 07:11:41;;;;;;;10.53;4.73;;;;;;;;;;5078720;28;20111;-77
2023/02/11 07:14:07;;;;;;;12.63;5.30;;;;;;;;;;5092367;28;20020;-76
2023/02/11 07:16:33;;;;;;;16.03;5.07;;;;;;;;;;5079241;28;20456;-76
2023/02/11 07:18:58;;;;;;;13.53;4.47;;;;;;;;;;5073682;28;20020;-76
2023/02/11 07:21:23;;;;;;;12.63;4.63;;;;;;;;;;5088901;28;20435;-76
2023/02/11 07:23:49;;;;;;;14.77;4.83;;;;;;;;;;5087417;28;20031;-76
2023/02/11 07:26:15;;;;;;;10.30;3.90;;;;;;;;;;5090854;28;20410;-76
2023/02/11 07:28:41;;;;;;;10.07;3.93;;;;;;;;;;5086168;28;20031;-77
2023/02/11 07:31:07;;;;;;;13.13;5.30;;;;;;;;;;5071434;28;20396;-76
2023/02/11 07:33:33;;;;;;;11.90;4.73;;;;;;;;;;5092408;28;20023;-76
2023/02/11 07:35:59;;;;;;;13.17;5.00;;;;;;;;;;5086749;28;20028;-76
2023/02/11 07:38:24;;;;;;;14.27;5.30;;;;;;;;;;5073946;28;20050;-76
2023/02/11 07:40:49;;;;;;;16.10;4.73;;;;;;;;;;5084907;28;20077;-76
2023/02/11 07:43:14;;;;;;;12.43;5.00;;;;;;;;;;5077639;28;20452;-76
2023/02/11 07:45:40;;;;;;;16.27;6.00;;;;;;;;;;5086132;28;20016;-76
2023/02/11 07:48:05;;;;;;;13.35;5.20;;;;;;;;;;5076545;28;20040;-76
2023/02/11 07:50:30;;;;;;;10.87;4.60;;;;;;;;;;5077466;28;20073;-76
2023/02/11 07:52:55;;;;;;;10.43;4.77;;;;;;;;;;5082647;28;20031;-76
2023/02/11 07:55:20;;;;;;;13.40;5.57;;;;;;;;;;5092819;28;20031;-76
2023/02/11 07:57:46;;;;;;;16.20;5.40;;;;;;;;;;5093016;28;20414;-76
2023/02/11 08:00:11;;;;;;;15.30;5.30;;;;;;;;;;5079148;28;20468;-76
2023/02/11 08:02:36;;;;;;;13.53;5.00;;;;;;;;;;5078503;28;20073;-76
2023/02/11 08:05:02;;;;;;;14.67;5.60;;;;;;;;;;5073497;28;20016;-76
2023/02/11 08:07:28;;;;;;;15.40;5.37;;;;;;;;;;5069683;28;20103;-76
2023/02/11 08:09:54;;;;;;;11.13;4.57;;;;;;;;;;5080795;28;20416;-76
2023/02/11 08:12:19;;;;;;;17.50;6.83;;;;;;;;;;5078241;28;20162;-76
2023/02/11 08:14:44;;;;;;;11.17;4.07;;;;;;;;;;5090281;28;20371;-77
2023/02/11 08:17:09;;;;;;;10.77;4.03;;;;;;;;;;5072838;28;20353;-77
2023/02/11 08:19:35;;;;;;;19.70;7.37;;;;;;;;;;5083654;28;20035;-76
2023/02/11 08:22:01;;;;;;;14.70;5.07;;;;;;;;;;5080490;28;20016;-76
2023/02/11 08:24:26;;;;;;;16.90;5.20;;;;;;;;;;5078231;28;20081;-76
2023/02/11 08:26:51;;;;;;;12.23;4.77;;;;;;;;;;5073675;28;20099;-76
2023/02/11 08:29:16;;;;;;;14.37;5.73;;;;;;;;;;5081482;28;20023;-76
2023/02/11 08:31:44;;;;;;;17.07;6.73;;;;;;;;;;5089350;28;20477;-76
2023/02/11 08:34:10;;;;;;;14.37;4.87;;;;;;;;;;5073811;28;20028;-76
2023/02/11 08:36:36;;;;;;;14.30;5.20;;;;;;;;;;5086865;28;20016;-76
2023/02/11 08:39:03;;;;;;;20.03;5.63;;;;;;;;;;5077970;28;20077;-76
2023/02/11 08:41:29;;;;;;;13.40;5.50;;;;;;;;;;5072281;28;20070;-77
2023/02/11 08:43:54;;;;;;;20.80;7.63;;;;;;;;;;5088309;28;20009;-76
2023/02/11 08:46:19;;;;;;;15.10;4.93;;;;;;;;;;5074608;28;20348;-76
2023/02/11 08:48:45;;;;;;;16.87;5.67;;;;;;;;;;5075895;28;20421;-76
2023/02/11 08:51:22;;;;;;;17.30;5.40;;;;;;;;;;5068738;28;20024;-76
2023/02/11 08:53:47;;;;;;;17.50;6.13;;;;;;;;;;5078359;28;20319;-77
2023/02/11 08:56:13;;;;;;;20.67;5.67;;;;;;;;;;5071675;28;20017;-77
2023/02/11 08:58:38;;;;;;;21.97;7.03;;;;;;;;;;5072882;28;20056;-76
2023/02/11 09:01:14;;;;;;;17.57;6.43;;;;;;;;;;5070650;28;20040;-76
2023/02/11 09:03:39;;;;;;;14.77;5.80;;;;;;;;;;5071597;28;20065;-77
2023/02/11 09:06:06;;;;;;;23.60;7.30;;;;;;;;;;5071622;28;20024;-76
2023/02/11 09:08:33;;;;;;;17.10;6.50;;;;;;;;;;5081510;28;20027;-76
2023/02/11 09:10:58;;;;;;;15.53;5.90;;;;;;;;;;5068735;28;20059;-76
2023/02/11 09:13:23;;;;;;;21.13;5.67;;;;;;;;;;5074686;28;20121;-77
2023/02/11 09:15:48;;;;;;;17.17;5.85;;;;;;;;;;5081348;28;20028;-77
2023/02/11 09:18:14;;;;;;;20.87;7.17;;;;;;;;;;5074192;28;20024;-76
2023/02/11 09:20:40;;;;;;;21.77;6.77;;;;;;;;;;5065308;28;20158;-77
2023/02/11 09:23:05;;;;;;;24.50;7.67;;;;;;;;;;5071554;28;20020;-76
2023/02/11 09:25:30;;;;;;;16.40;5.13;;;;;;;;;;5091244;28;20016;-77
2023/02/11 09:27:55;;;;;;;14.15;5.65;;;;;;;;;;5078140;28;20128;-77
2023/02/11 09:30:21;;;;;;;18.03;5.93;;;;;;;;;;5089793;28;20026;-76
2023/02/11 09:32:46;;;;;;;17.25;6.28;;;;;;;;;;5082816;28;20110;-76
2023/02/11 09:35:11;;;;;;;19.55;6.65;;;;;;;;;;5080388;28;20068;-76
2023/02/11 09:37:36;;;;;;;15.15;5.13;;;;;;;;;;5076951;28;20056;-76
2023/02/11 09:40:02;;;;;;;19.73;6.53;;;;;;;;;;5081439;28;20035;-77
2023/02/11 09:42:30;;;;;;;17.88;6.28;;;;;;;;;;5095546;28;20016;-76
2023/02/11 09:44:56;;;;;;;25.00;9.40;;;;;;;;;;5072772;28;20025;-76
2023/02/11 09:47:26;;;;;;;22.53;7.20;;;;;;;;;;5076718;28;20052;-76
2023/02/11 09:50:03;;;;;;;21.67;6.37;;;;;;;;;;5070936;28;20038;-76
2023/02/11 09:52:31;;;;;;;22.92;6.00;;;;;;;;;;5075627;28;20103;-76
2023/02/11 09:54:58;;;;;;;19.85;6.72;;;;;;;;;;5076119;28;20036;-76
2023/02/11 09:57:31;;;;;;;17.97;6.97;;;;;;;;;;5075493;28;20027;-76
2023/02/11 09:59:56;;;;;;;17.25;6.65;;;;;;;;;;5081900;28;20088;-76
2023/02/11 10:02:31;;;;;;;20.70;7.47;;;;;;;;;;5089299;28;20455;-77
2023/02/11 10:04:56;;;;;;;17.67;6.60;;;;;;;;;;5094113;28;20077;-76
2023/02/11 10:07:34;;;;;;;19.47;7.40;;;;;;;;;;5075600;28;20036;-76
2023/02/11 10:10:02;;;;;;;25.02;7.43;;;;;;;;;;5076783;28;20036;-77
2023/02/11 10:12:30;;;;;;;22.70;8.40;;;;;;;;;;5089207;28;20020;-76
2023/02/11 10:15:13;;;;;;;29.83;8.57;;;;;;;;;;5093917;28;20118;-76
2023/02/11 10:17:53;;;;;;;18.13;6.37;;;;;;;;;;5085653;28;20103;-76
2023/02/11 10:20:28;;;;;;;20.23;7.63;;;;;;;;;;5080870;28;20063;-76
2023/02/11 10:22:56;;;;;;;31.13;10.27;;;;;;;;;;5092081;28;20015;-75
2023/02/11 10:25:24;;;;;;;21.42;7.57;;;;;;;;;;5073708;28;20028;-76
2023/02/11 10:27:50;;;;;;;25.00;7.85;;;;;;;;;;5074136;28;20032;-76
2023/02/11 10:30:31;;;;;;;22.17;6.70;;;;;;;;;;5071266;28;20062;-76
2023/02/11 10:32:56;;;;;;;25.17;8.88;;;;;;;;;;5066480;28;20020;-76
2023/02/11 10:35:22;;;;;;;20.85;7.65;;;;;;;;;;5074922;28;20087;-76
2023/02/11 10:37:47;;;;;;;23.50;8.27;;;;;;;;;;5086134;28;20035;-76
2023/02/11 10:40:17;;;;;;;19.77;8.00;;;;;;;;;;5079576;28;20020;-76
2023/02/11 10:42:44;;;;;;;23.35;8.90;;;;;;;;;;5094602;28;20020;-76
2023/02/11 10:45:16;;;;;;;24.20;8.47;;;;;;;;;;5088085;28;20036;-76
2023/02/11 10:47:41;;;;;;;26.10;9.25;;;;;;;;;;5094065;28;20024;-77
2023/02/11 10:50:18;;;;;;;23.77;7.28;;;;;;;;;;5078139;28;20043;-76
2023/02/11 10:52:43;;;;;;;23.90;7.67;;;;;;;;;;5094392;28;20028;-76
2023/02/11 10:55:08;;;;;;;27.00;8.60;;;;;;;;;;5093957;28;20459;-76
2023/02/11 10:57:33;;;;;;;17.48;7.07;;;;;;;;;;5094042;28;20042;-76
2023/02/11 11:00:01;;;;;;;19.85;8.57;;;;;;;;;;5089799;28;20431;-76
2023/02/11 11:02:33;;;;;;;24.37;9.43;;;;;;;;;;5088548;28;20508;-76
2023/02/11 11:05:00;;;;;;;21.40;7.68;;;;;;;;;;5092537;28;20471;-75
2023/02/11 11:07:29;;;;;;;22.67;8.00;;;;;;;;;;5093990;28;20368;-76
2023/02/11 11:09:58;;;;;;;15.90;7.22;;;;;;;;;;5086272;28;20043;-76
2023/02/11 11:12:25;;;;;;;20.75;8.07;;;;;;;;;;5092645;28;20050;-76
2023/02/11 11:14:58;;;;;;;23.55;7.65;;;;;;;;;;5093307;28;20055;-75
2023/02/11 11:17:24;;;;;;;21.20;7.97;;;;;;;;;;5093642;28;20016;-76
2023/02/11 11:19:49;;;;;;;27.83;10.00;;;;;;;;;;5082395;28;20107;-76
2023/02/11 11:22:19;;;;;;;27.02;7.90;;;;;;;;;;5092460;28;20047;-76
2023/02/11 11:24:45;;;;;;;19.83;6.85;;;;;;;;;;5091753;28;20024;-76
2023/02/11 11:27:16;;;;;;;23.08;8.43;;;;;;;;;;5083502;28;20391;-76
2023/02/11 11:29:44;;;;;;;24.13;9.68;;;;;;;;;;5090204;28;20040;-76
2023/02/11 11:32:17;;;;;;;22.27;7.80;;;;;;;;;;5082468;28;20051;-76
2023/02/11 11:34:47;;;;;;;18.27;8.02;;;;;;;;;;5091745;28;20028;-76
2023/02/11 11:37:32;;;;;;;21.85;8.68;;;;;;;;;;5084387;28;20038;-76
2023/02/11 11:40:07;;;;;;;22.35;7.05;;;;;;;;;;5092667;28;20070;-76
2023/02/11 11:42:33;;;;;;;26.25;9.05;;;;;;;;;;5093604;28;20069;-76
2023/02/11 11:45:03;;;;;;;26.02;10.00;;;;;;;;;;5083480;28;20025;-76
2023/02/11 11:47:48;;;;;;;28.10;8.43;;;;;;;;;;5081521;28;20020;-76
2023/02/11 11:50:23;;;;;;;31.73;9.38;;;;;;;;;;5071274;28;20570;-76
2023/02/11 11:53:04;;;;;;;25.88;9.20;;;;;;;;;;5091697;28;20065;-76
2023/02/11 11:55:32;;;;;;;23.58;8.35;;;;;;;;;;5092280;28;20016;-76
2023/02/11 11:57:57;;;;;;;22.92;7.97;;;;;;;;;;5073308;28;20093;-75
2023/02/11 12:00:26;;;;;;;22.77;8.07;;;;;;;;;;5088314;28;20107;-76
2023/02/11 12:02:54;;;;;;;28.25;10.52;;;;;;;;;;5088235;28;20078;-76
2023/02/11 12:05:46;;;;;;;19.33;7.75;;;;;;;;;;5083092;28;20486;-76
2023/02/11 12:08:18;;;;;;;29.30;9.18;;;;;;;;;;5088898;28;20131;-76
2023/02/11 12:11:01;;;;;;;29.52;9.85;;;;;;;;;;5092678;28;20131;-76
2023/02/11 12:13:26;;;;;;;23.33;8.85;;;;;;;;;;5092921;28;20111;-76
2023/02/11 12:15:51;;;;;;;25.88;8.95;;;;;;;;;;5092285;28;20020;-76
2023/02/11 12:18:32;;;;;;;30.98;7.65;;;;;;;;;;5089106;28;20400;-76
2023/02/11 12:21:03;;;;;;;25.33;8.70;;;;;;;;;;5091015;28;20028;-76
2023/02/11 12:23:43;;;;;;;20.70;8.23;;;;;;;;;;5092818;28;20111;-75
2023/02/11 12:26:14;;;;;;;26.05;8.20;;;;;;;;;;5092764;28;20065;-76
2023/02/11 12:28:58;;;;;;;30.42;9.10;;;;;;;;;;5087421;28;20040;-76
2023/02/11 12:31:31;;;;;;;26.48;9.18;;;;;;;;;;5092291;28;20035;-76
2023/02/11 12:34:15;;;;;;;29.52;8.57;;;;;;;;;;5091290;28;20027;-76
2023/02/11 12:36:57;;;;;;;27.85;7.85;;;;;;;;;;5091963;28;20469;-76
2023/02/11 12:39:22;;;;;;;32.67;11.88;;;;;;;;;;5085964;28;20024;-76
2023/02/11 12:44:59;;;;;;;22.55;8.18;;;;;;;;;;5081131;28;20174;-76
2023/02/11 12:47:50;;;;;;;24.20;7.97;;;;;;;;;;5092148;28;20016;-76
2023/02/11 12:50:28;;;;;;;24.80;9.18;;;;;;;;;;5081579;28;20058;-76
2023/02/11 12:53:06;;;;;;;26.00;10.10;;;;;;;;;;5092547;28;20048;-76
2023/02/11 12:55:40;;;;;;;29.70;10.13;;;;;;;;;;5090364;28;20027;-76
2023/02/11 12:58:11;;;;;;;25.90;8.27;;;;;;;;;;5085881;28;20429;-76
2023/02/11 13:00:45;;;;;;;24.70;8.80;;;;;;;;;;5089651;28;20012;-75
2023/02/11 13:03:25;;;;;;;25.25;8.95;;;;;;;;;;5091966;28;20016;-76
2023/02/11 13:05:52;;;;;;;24.65;8.77;;;;;;;;;;5091305;28;20027;-76
2023/02/11 13:08:29;;;;;;;33.72;9.88;;;;;;;;;;5084699;28;20029;-77
2023/02/11 13:10:57;;;;;;;25.38;9.50;;;;;;;;;;5083097;28;20147;-76
2023/02/11 13:13:27;;;;;;;24.00;8.68;;;;;;;;;;5091788;28;20432;-76
2023/02/11 13:16:06;;;;;;;26.55;9.48;;;;;;;;;;5091501;28;20463;-76
2023/02/11 13:18:50;;;;;;;25.35;8.82;;;;;;;;;;5082615;28;20097;-76
2023/02/11 13:21:15;;;;;;;39.88;14.52;;;;;;;;;;5074294;28;20472;-76
2023/02/11 13:23:40;;;;;;;23.45;7.90;;;;;;;;;;5091692;28;20108;-76
2023/02/11 13:26:16;;;;;;;23.83;10.40;;;;;;;;;;5091596;28;20044;-76
2023/02/11 13:28:47;;;;;;;22.20;7.82;;;;;;;;;;5088643;28;20165;-76
2023/02/11 13:31:15;;;;;;;25.80;8.60;;;;;;;;;;5090017;28;20053;-76
2023/02/11 13:33:44;;;;;;;26.52;8.35;;;;;;;;;;5091215;28;20344;-76
2023/02/11 13:36:12;;;;;;;28.38;11.05;;;;;;;;;;5090011;28;20023;-76
2023/02/11 13:38:38;;;;;;;28.90;9.55;;;;;;;;;;5086853;28;20028;-76
2023/02/11 13:41:15;;;;;;;26.77;8.93;;;;;;;;;;5091286;28;20054;-76
2023/02/11 13:43:40;;;;;;;26.27;9.23;;;;;;;;;;5091274;28;20012;-76
2023/02/11 13:46:08;;;;;;;29.15;9.98;;;;;;;;;;5085757;28;20020;-76
2023/02/11 13:48:35;;;;;;;26.42;8.82;;;;;;;;;;5085773;28;20748;-76
2023/02/11 13:51:03;;;;;;;26.58;9.80;;;;;;;;;;5091315;28;20150;-76
2023/02/11 13:53:29;;;;;;;20.60;8.95;;;;;;;;;;5091174;28;20054;-76
2023/02/11 13:56:06;;;;;;;25.35;9.13;;;;;;;;;;5089548;28;20020;-76
2023/02/11 13:58:35;;;;;;;24.58;8.90;;;;;;;;;;5083497;28;20756;-76
2023/02/11 14:01:00;;;;;;;27.25;8.90;;;;;;;;;;5091194;28;20044;-76
2023/02/11 14:09:05;;;;;;;21.50;8.02;;;;;;;;;;5079253;28;20399;-76
2023/02/11 14:11:42;;;;;;;26.15;8.15;;;;;;;;;;5090626;28;20070;-76
2023/02/11 14:14:10;;;;;;;23.70;8.35;;;;;;;;;;5091220;28;20020;-76
2023/02/11 14:16:56;;;;;;;21.83;8.20;;;;;;;;;;5091005;28;20332;-76
2023/02/11 14:19:36;;;;;;;29.70;9.73;;;;;;;;;;5076338;28;20443;-76
2023/02/11 14:22:03;;;;;;;29.55;9.77;;;;;;;;;;5068450;28;20023;-76
2023/02/11 14:24:28;;;;;;;26.65;9.80;;;;;;;;;;5094499;28;20464;-76
2023/02/11 14:26:53;;;;;;;26.60;10.63;;;;;;;;;;5093513;28;20054;-76
2023/02/11 14:29:25;;;;;;;26.75;9.48;;;;;;;;;;5088251;28;20067;-76
2023/02/11 14:32:00;;;;;;;28.45;9.73;;;;;;;;;;5094557;28;20020;-76
2023/02/11 14:34:31;;;;;;;27.63;9.63;;;;;;;;;;5086362;28;20103;-76
2023/02/11 14:37:17;;;;;;;25.67;8.93;;;;;;;;;;5094574;28;20020;-76
2023/02/11 14:39:48;;;;;;;24.95;9.00;;;;;;;;;;5055793;28;20028;-76
2023/02/11 14:42:19;;;;;;;25.10;9.70;;;;;;;;;;5093118;28;20016;-77
2023/02/11 14:44:45;;;;;;;24.17;8.43;;;;;;;;;;5085040;28;20025;-76
2023/02/11 14:47:15;;;;;;;25.00;9.45;;;;;;;;;;5092290;28;20027;-76
2023/02/11 14:49:41;;;;;;;23.10;8.48;;;;;;;;;;5086253;28;20124;-76
2023/02/11 14:52:22;;;;;;;21.30;8.73;;;;;;;;;;5092792;28;20040;-76
2023/02/11 14:54:47;;;;;;;21.48;7.85;;;;;;;;;;5092509;28;20049;-76
2023/02/11 14:57:14;;;;;;;24.10;9.27;;;;;;;;;;5092675;28;20107;-76